sensor_id;sensor_type;location;lat;lon;timestamp;pressure;altitude;pressure_sealevel;temperature;humidity
77077;BME280;66003;52.286;104.306;2023-03-14T00:02:10;97457.41;;;1.07;42.78
77077;BME280;66003;52.286;104.306;2023-03-14T00:04:36;97362.72;;;0.58;42.85
77077;BME280;66003;52.286;104.306;2023-03-14T00:07:03;97431.78;;;1.22;41.51
77077;BME280;66003;52.286;104.306;2023-03-14T00:09:29;97432.97;;;1.20;40.92
77077;BME280;66003;52.286;104.306;2023-03-14T00:11:56;97429.63;;;1.32;40.58
77077;BME280;66003;52.286;104.306;2023-03-14T00:14:23;97461.19;;;1.60;40.88
77077;BME280;66003;52.286;104.306;2023-03-14T00:16:49;97459.00;;;1.70;40.25
77077;BME280;66003;52.286;104.306;2023-03-14T00:19:15;97440.38;;;1.72;39.56
77077;BME280;66003;52.286;104.306;2023-03-14T00:21:42;97443.50;;;1.89;39.76
77077;BME280;66003;52.286;104.306;2023-03-14T00:24:08;97437.03;;;1.98;40.29
77077;BME280;66003;52.286;104.306;2023-03-14T00:26:34;97448.47;;;2.25;39.18
77077;BME280;66003;52.286;104.306;2023-03-14T00:29:00;97410.16;;;2.22;38.71
77077;BME280;66003;52.286;104.306;2023-03-14T00:31:27;97434.97;;;2.67;38.25
77077;BME280;66003;52.286;104.306;2023-03-14T00:33:53;97434.56;;;2.90;37.50
77077;BME280;66003;52.286;104.306;2023-03-14T00:36:21;97465.41;;;3.22;38.05
77077;BME280;66003;52.286;104.306;2023-03-14T00:38:49;97461.97;;;3.35;37.59
77077;BME280;66003;52.286;104.306;2023-03-14T00:41:19;97458.69;;;3.53;37.14
77077;BME280;66003;52.286;104.306;2023-03-14T00:43:45;97424.09;;;3.54;36.86
77077;BME280;66003;52.286;104.306;2023-03-14T00:46:12;97459.81;;;3.83;36.35
77077;BME280;66003;52.286;104.306;2023-03-14T00:48:39;97439.31;;;3.72;36.35
77077;BME280;66003;52.286;104.306;2023-03-14T00:51:06;97464.66;;;3.99;36.46
77077;BME280;66003;52.286;104.306;2023-03-14T00:53:35;97431.66;;;4.02;36.33
77077;BME280;66003;52.286;104.306;2023-03-14T00:56:03;97465.63;;;4.50;35.11
77077;BME280;66003;52.286;104.306;2023-03-14T00:58:30;97417.16;;;4.81;34.89
77077;BME280;66003;52.286;104.306;2023-03-14T01:00:56;97464.28;;;5.22;34.02
77077;BME280;66003;52.286;104.306;2023-03-14T01:03:22;97460.34;;;4.81;34.09
77077;BME280;66003;52.286;104.306;2023-03-14T01:05:54;97469.94;;;4.76;34.42
77077;BME280;66003;52.286;104.306;2023-03-14T01:08:32;97449.28;;;4.59;35.03
77077;BME280;66003;52.286;104.306;2023-03-14T01:10:58;97471.91;;;4.55;34.89
77077;BME280;66003;52.286;104.306;2023-03-14T01:13:24;97473.25;;;4.71;35.53
77077;BME280;66003;52.286;104.306;2023-03-14T01:15:50;97476.78;;;4.90;34.64
77077;BME280;66003;52.286;104.306;2023-03-14T01:18:16;97446.63;;;4.91;34.25
77077;BME280;66003;52.286;104.306;2023-03-14T01:20:42;97473.22;;;5.27;34.49
77077;BME280;66003;52.286;104.306;2023-03-14T01:23:09;97459.03;;;5.40;33.75
77077;BME280;66003;52.286;104.306;2023-03-14T01:25:40;97478.13;;;5.67;32.85
77077;BME280;66003;52.286;104.306;2023-03-14T01:28:06;97491.09;;;6.00;32.40
77077;BME280;66003;52.286;104.306;2023-03-14T01:30:33;97462.84;;;5.87;32.59
77077;BME280;66003;52.286;104.306;2023-03-14T01:32:59;97455.16;;;5.61;32.34
77077;BME280;66003;52.286;104.306;2023-03-14T01:35:25;97443.50;;;5.43;32.56
77077;BME280;66003;52.286;104.306;2023-03-14T01:37:51;97469.63;;;5.65;32.95
77077;BME280;66003;52.286;104.306;2023-03-14T01:40:17;97503.00;;;5.91;33.23
77077;BME280;66003;52.286;104.306;2023-03-14T01:43:12;97499.78;;;6.07;32.28
77077;BME280;66003;52.286;104.306;2023-03-14T01:48:26;97474.09;;;5.64;32.11
77077;BME280;66003;52.286;104.306;2023-03-14T01:50:54;97500.31;;;5.97;32.23
77077;BME280;66003;52.286;104.306;2023-03-14T01:53:20;97497.16;;;5.89;32.84
77077;BME280;66003;52.286;104.306;2023-03-14T01:55:48;97465.03;;;5.54;32.55
77077;BME280;66003;52.286;104.306;2023-03-14T01:58:16;97457.44;;;5.57;33.29
77077;BME280;66003;52.286;104.306;2023-03-14T02:00:43;97474.44;;;5.93;33.55
77077;BME280;66003;52.286;104.306;2023-03-14T02:03:16;97501.56;;;6.13;33.16
77077;BME280;66003;52.286;104.306;2023-03-14T02:05:44;97427.38;;;5.27;33.74
77077;BME280;66003;52.286;104.306;2023-03-14T02:08:20;97509.13;;;5.48;34.51
77077;BME280;66003;52.286;104.306;2023-03-14T02:10:48;97501.91;;;5.55;35.41
77077;BME280;66003;52.286;104.306;2023-03-14T02:13:17;97465.28;;;5.45;35.55
77077;BME280;66003;52.286;104.306;2023-03-14T02:15:44;97455.97;;;5.18;35.50
77077;BME280;66003;52.286;104.306;2023-03-14T02:18:11;97473.88;;;5.23;35.78
77077;BME280;66003;52.286;104.306;2023-03-14T02:26:15;97466.00;;;5.34;36.20
77077;BME280;66003;52.286;104.306;2023-03-14T02:28:42;97470.03;;;5.62;35.53
77077;BME280;66003;52.286;104.306;2023-03-14T02:31:08;97468.59;;;5.66;35.81
77077;BME280;66003;52.286;104.306;2023-03-14T02:33:37;97491.59;;;5.90;35.33
77077;BME280;66003;52.286;104.306;2023-03-14T02:36:10;97465.44;;;6.12;35.45
77077;BME280;66003;52.286;104.306;2023-03-14T02:39:08;97450.97;;;6.56;34.63
77077;BME280;66003;52.286;104.306;2023-03-14T02:41:36;97453.16;;;7.01;33.71
77077;BME280;66003;52.286;104.306;2023-03-14T02:44:02;97492.75;;;7.67;33.79
77077;BME280;66003;52.286;104.306;2023-03-14T02:46:28;97491.13;;;8.01;33.01
77077;BME280;66003;52.286;104.306;2023-03-14T02:48:56;97494.94;;;7.93;32.48
77077;BME280;66003;52.286;104.306;2023-03-14T02:51:26;97452.41;;;7.58;32.80
77077;BME280;66003;52.286;104.306;2023-03-14T02:53:53;97466.28;;;7.49;32.97
77077;BME280;66003;52.286;104.306;2023-03-14T02:56:19;97461.66;;;7.44;32.37
77077;BME280;66003;52.286;104.306;2023-03-14T02:58:45;97454.13;;;7.18;33.00
77077;BME280;66003;52.286;104.306;2023-03-14T03:01:11;97481.84;;;7.22;33.06
77077;BME280;66003;52.286;104.306;2023-03-14T03:03:37;97456.06;;;7.11;32.51
77077;BME280;66003;52.286;104.306;2023-03-14T03:06:04;97454.59;;;7.15;32.13
77077;BME280;66003;52.286;104.306;2023-03-14T03:08:31;97443.50;;;7.30;32.29
77077;BME280;66003;52.286;104.306;2023-03-14T03:10:58;97482.69;;;7.69;31.48
77077;BME280;66003;52.286;104.306;2023-03-14T03:13:24;97450.06;;;7.85;31.39
77077;BME280;66003;52.286;104.306;2023-03-14T03:15:50;97462.88;;;8.00;31.06
77077;BME280;66003;52.286;104.306;2023-03-14T03:18:16;97426.59;;;7.71;31.29
77077;BME280;66003;52.286;104.306;2023-03-14T03:20:42;97462.00;;;7.71;31.75
77077;BME280;66003;52.286;104.306;2023-03-14T03:23:09;97474.47;;;7.59;32.12
77077;BME280;66003;52.286;104.306;2023-03-14T03:25:35;97462.22;;;7.81;32.38
77077;BME280;66003;52.286;104.306;2023-03-14T03:28:01;97440.91;;;7.93;31.87
77077;BME280;66003;52.286;104.306;2023-03-14T03:30:27;97437.91;;;8.01;32.35
77077;BME280;66003;52.286;104.306;2023-03-14T03:32:54;97453.66;;;8.31;32.50
77077;BME280;66003;52.286;104.306;2023-03-14T03:35:20;97453.63;;;8.43;32.70
77077;BME280;66003;52.286;104.306;2023-03-14T03:37:46;97461.06;;;8.41;32.56
77077;BME280;66003;52.286;104.306;2023-03-14T03:40:12;97439.22;;;8.15;32.96
77077;BME280;66003;52.286;104.306;2023-03-14T03:42:38;97452.03;;;8.30;33.29
77077;BME280;66003;52.286;104.306;2023-03-14T03:45:05;97465.72;;;8.33;32.32
77077;BME280;66003;52.286;104.306;2023-03-14T03:47:31;97467.63;;;8.50;31.81
77077;BME280;66003;52.286;104.306;2023-03-14T03:49:57;97462.56;;;8.65;32.44
77077;BME280;66003;52.286;104.306;2023-03-14T03:52:23;97470.00;;;8.91;31.32
77077;BME280;66003;52.286;104.306;2023-03-14T03:54:49;97463.44;;;9.32;31.13
77077;BME280;66003;52.286;104.306;2023-03-14T03:57:15;97454.50;;;9.55;30.70
77077;BME280;66003;52.286;104.306;2023-03-14T03:59:41;97461.53;;;9.83;29.75
77077;BME280;66003;52.286;104.306;2023-03-14T04:02:07;97455.13;;;10.01;29.72
77077;BME280;66003;52.286;104.306;2023-03-14T04:04:34;97420.50;;;9.67;29.74
77077;BME280;66003;52.286;104.306;2023-03-14T04:07:00;97417.81;;;9.29;30.69
77077;BME280;66003;52.286;104.306;2023-03-14T04:09:26;97451.09;;;9.26;30.68
77077;BME280;66003;52.286;104.306;2023-03-14T04:11:52;97444.16;;;9.09;31.16
77077;BME280;66003;52.286;104.306;2023-03-14T04:14:18;97438.75;;;9.20;31.47
77077;BME280;66003;52.286;104.306;2023-03-14T04:16:44;97421.09;;;9.36;31.35
77077;BME280;66003;52.286;104.306;2023-03-14T04:19:10;97423.09;;;9.46;30.78
77077;BME280;66003;52.286;104.306;2023-03-14T04:21:36;97413.34;;;9.34;30.96
77077;BME280;66003;52.286;104.306;2023-03-14T04:24:06;97435.34;;;9.25;31.48
77077;BME280;66003;52.286;104.306;2023-03-14T04:26:32;97441.91;;;9.17;30.94
77077;BME280;66003;52.286;104.306;2023-03-14T04:28:58;97423.34;;;9.44;30.74
77077;BME280;66003;52.286;104.306;2023-03-14T04:31:24;97436.41;;;9.79;30.47
77077;BME280;66003;52.286;104.306;2023-03-14T04:33:51;97408.16;;;10.05;30.57
77077;BME280;66003;52.286;104.306;2023-03-14T04:36:17;97428.94;;;10.68;29.65
77077;BME280;66003;52.286;104.306;2023-03-14T04:38:43;97392.44;;;10.84;29.67
77077;BME280;66003;52.286;104.306;2023-03-14T04:41:09;97398.38;;;10.59;29.27
77077;BME280;66003;52.286;104.306;2023-03-14T04:43:35;97394.59;;;10.87;29.63
77077;BME280;66003;52.286;104.306;2023-03-14T04:46:01;97407.44;;;11.22;28.94
77077;BME280;66003;52.286;104.306;2023-03-14T04:48:28;97419.06;;;11.38;28.88
77077;BME280;66003;52.286;104.306;2023-03-14T04:50:54;97410.13;;;10.85;29.26
77077;BME280;66003;52.286;104.306;2023-03-14T04:53:21;97405.84;;;10.62;29.45
77077;BME280;66003;52.286;104.306;2023-03-14T04:55:48;97415.75;;;10.35;29.46
77077;BME280;66003;52.286;104.306;2023-03-14T04:58:15;97385.63;;;9.74;30.10
77077;BME280;66003;52.286;104.306;2023-03-14T05:00:41;97385.47;;;9.64;30.11
77077;BME280;66003;52.286;104.306;2023-03-14T05:03:07;97378.50;;;9.41;29.37
77077;BME280;66003;52.286;104.306;2023-03-14T05:05:33;97390.13;;;9.52;28.94
77077;BME280;66003;52.286;104.306;2023-03-14T05:07:59;97400.94;;;9.07;29.46
77077;BME280;66003;52.286;104.306;2023-03-14T05:10:25;97413.75;;;8.76;30.59
77077;BME280;66003;52.286;104.306;2023-03-14T05:12:51;97388.97;;;8.19;30.92
77077;BME280;66003;52.286;104.306;2023-03-14T05:15:18;97373.59;;;7.81;31.57
77077;BME280;66003;52.286;104.306;2023-03-14T05:17:44;97369.59;;;7.67;30.97
77077;BME280;66003;52.286;104.306;2023-03-14T05:20:11;97408.47;;;8.08;31.59
77077;BME280;66003;52.286;104.306;2023-03-14T05:22:40;97367.41;;;7.64;33.11
77077;BME280;66003;52.286;104.306;2023-03-14T05:25:06;97407.63;;;8.19;33.20
77077;BME280;66003;52.286;104.306;2023-03-14T05:27:33;97372.50;;;8.33;31.76
77077;BME280;66003;52.286;104.306;2023-03-14T05:30:00;97390.19;;;8.40;31.69
77077;BME280;66003;52.286;104.306;2023-03-14T05:32:28;97390.41;;;8.38;31.94
77077;BME280;66003;52.286;104.306;2023-03-14T05:34:54;97389.47;;;8.04;32.65
77077;BME280;66003;52.286;104.306;2023-03-14T05:37:24;97391.34;;;7.64;33.21
77077;BME280;66003;52.286;104.306;2023-03-14T05:39:50;97361.19;;;7.11;34.47
77077;BME280;66003;52.286;104.306;2023-03-14T05:42:16;97394.72;;;7.01;34.28
77077;BME280;66003;52.286;104.306;2023-03-14T05:44:43;97392.25;;;6.34;36.44
77077;BME280;66003;52.286;104.306;2023-03-14T05:47:09;97360.66;;;5.48;37.71
77077;BME280;66003;52.286;104.306;2023-03-14T05:49:35;97398.75;;;5.54;38.74
77077;BME280;66003;52.286;104.306;2023-03-14T05:52:01;97392.03;;;5.33;39.33
77077;BME280;66003;52.286;104.306;2023-03-14T05:54:28;97375.78;;;5.29;40.49
77077;BME280;66003;52.286;104.306;2023-03-14T05:56:54;97387.03;;;5.61;40.56
77077;BME280;66003;52.286;104.306;2023-03-14T05:59:20;97390.47;;;5.80;39.56
77077;BME280;66003;52.286;104.306;2023-03-14T06:01:46;97358.81;;;5.67;38.91
77077;BME280;66003;52.286;104.306;2023-03-14T06:04:12;97306.84;;;5.48;39.87
77077;BME280;66003;52.286;104.306;2023-03-14T06:06:39;97394.41;;;5.96;38.19
77077;BME280;66003;52.286;104.306;2023-03-14T06:09:05;97384.38;;;5.61;38.89
77077;BME280;66003;52.286;104.306;2023-03-14T06:11:31;97390.19;;;5.33;39.36
77077;BME280;66003;52.286;104.306;2023-03-14T06:13:57;97388.63;;;5.44;39.40
77077;BME280;66003;52.286;104.306;2023-03-14T06:16:23;97339.91;;;5.63;38.93
77077;BME280;66003;52.286;104.306;2023-03-14T06:18:50;97350.00;;;6.33;38.12
77077;BME280;66003;52.286;104.306;2023-03-14T06:21:18;97345.00;;;6.78;36.36
77077;BME280;66003;52.286;104.306;2023-03-14T06:23:45;97368.00;;;7.54;35.28
77077;BME280;66003;52.286;104.306;2023-03-14T06:26:11;97360.34;;;7.57;36.14
77077;BME280;66003;52.286;104.306;2023-03-14T06:28:38;97351.53;;;7.57;34.82
77077;BME280;66003;52.286;104.306;2023-03-14T06:31:04;97373.19;;;8.01;35.61
77077;BME280;66003;52.286;104.306;2023-03-14T06:33:31;97292.44;;;7.67;34.99
77077;BME280;66003;52.286;104.306;2023-03-14T06:35:57;97309.75;;;7.69;34.40
77077;BME280;66003;52.286;104.306;2023-03-14T06:38:23;97338.75;;;7.42;35.23
77077;BME280;66003;52.286;104.306;2023-03-14T06:40:49;97359.56;;;7.22;36.62
77077;BME280;66003;52.286;104.306;2023-03-14T06:43:15;97323.06;;;7.17;36.99
77077;BME280;66003;52.286;104.306;2023-03-14T06:45:42;97335.53;;;7.29;37.32
77077;BME280;66003;52.286;104.306;2023-03-14T06:48:08;97342.69;;;7.80;36.46
77077;BME280;66003;52.286;104.306;2023-03-14T06:50:34;97357.94;;;8.24;34.79
77077;BME280;66003;52.286;104.306;2023-03-14T06:53:00;97336.53;;;8.48;35.04
77077;BME280;66003;52.286;104.306;2023-03-14T06:55:26;97338.88;;;8.44;33.67
77077;BME280;66003;52.286;104.306;2023-03-14T06:57:52;97348.63;;;8.39;33.82
77077;BME280;66003;52.286;104.306;2023-03-14T07:00:19;97334.56;;;8.15;34.49
77077;BME280;66003;52.286;104.306;2023-03-14T07:02:45;97327.97;;;8.17;34.41
77077;BME280;66003;52.286;104.306;2023-03-14T07:05:11;97312.09;;;8.22;34.18
77077;BME280;66003;52.286;104.306;2023-03-14T07:07:37;97312.31;;;8.32;34.62
77077;BME280;66003;52.286;104.306;2023-03-14T07:10:04;97353.88;;;8.33;33.78
77077;BME280;66003;52.286;104.306;2023-03-14T07:12:30;97342.41;;;7.65;34.81
77077;BME280;66003;52.286;104.306;2023-03-14T07:14:56;97352.50;;;6.58;37.16
77077;BME280;66003;52.286;104.306;2023-03-14T07:17:22;97354.38;;;5.79;39.15
77077;BME280;66003;52.286;104.306;2023-03-14T07:19:48;97334.97;;;4.94;39.75
77077;BME280;66003;52.286;104.306;2023-03-14T07:22:14;97321.56;;;4.39;42.60
77077;BME280;66003;52.286;104.306;2023-03-14T07:24:40;97353.34;;;4.64;42.52
77077;BME280;66003;52.286;104.306;2023-03-14T07:27:06;97350.78;;;5.00;42.16
77077;BME280;66003;52.286;104.306;2023-03-14T07:29:33;97314.72;;;5.36;40.84
77077;BME280;66003;52.286;104.306;2023-03-14T07:31:59;97350.81;;;6.03;40.03
77077;BME280;66003;52.286;104.306;2023-03-14T07:34:25;97318.84;;;6.28;38.47
77077;BME280;66003;52.286;104.306;2023-03-14T07:36:51;97334.41;;;6.89;38.65
77077;BME280;66003;52.286;104.306;2023-03-14T07:39:17;97312.91;;;7.03;37.39
77077;BME280;66003;52.286;104.306;2023-03-14T07:41:43;97341.31;;;7.25;37.09
77077;BME280;66003;52.286;104.306;2023-03-14T07:44:09;97335.19;;;7.13;37.23
77077;BME280;66003;52.286;104.306;2023-03-14T07:46:35;97314.06;;;6.83;36.31
77077;BME280;66003;52.286;104.306;2023-03-14T07:49:01;97338.81;;;6.96;36.62
77077;BME280;66003;52.286;104.306;2023-03-14T07:51:27;97308.63;;;6.67;35.74
77077;BME280;66003;52.286;104.306;2023-03-14T07:53:53;97336.81;;;6.68;34.79
77077;BME280;66003;52.286;104.306;2023-03-14T07:56:20;97305.28;;;6.71;35.24
77077;BME280;66003;52.286;104.306;2023-03-14T07:58:46;97329.75;;;6.85;35.25
77077;BME280;66003;52.286;104.306;2023-03-14T08:01:12;97319.47;;;6.65;35.66
77077;BME280;66003;52.286;104.306;2023-03-14T08:03:38;97321.66;;;6.45;35.43
77077;BME280;66003;52.286;104.306;2023-03-14T08:06:04;97325.03;;;6.10;36.12
77077;BME280;66003;52.286;104.306;2023-03-14T08:08:31;97285.03;;;5.64;36.08
77077;BME280;66003;52.286;104.306;2023-03-14T08:11:02;97303.59;;;5.64;35.59
77077;BME280;66003;52.286;104.306;2023-03-14T08:13:29;97305.50;;;5.75;36.41
77077;BME280;66003;52.286;104.306;2023-03-14T08:15:55;97300.63;;;5.72;35.24
77077;BME280;66003;52.286;104.306;2023-03-14T08:18:21;97337.28;;;5.93;34.61
77077;BME280;66003;52.286;104.306;2023-03-14T08:20:47;97327.97;;;6.02;34.52
77077;BME280;66003;52.286;104.306;2023-03-14T08:23:13;97302.25;;;6.03;34.12
77077;BME280;66003;52.286;104.306;2023-03-14T08:25:39;97325.56;;;6.42;33.52
77077;BME280;66003;52.286;104.306;2023-03-14T08:28:05;97306.06;;;6.37;33.43
77077;BME280;66003;52.286;104.306;2023-03-14T08:30:32;97294.16;;;6.39;33.45
77077;BME280;66003;52.286;104.306;2023-03-14T08:32:58;97323.06;;;6.59;32.80
77077;BME280;66003;52.286;104.306;2023-03-14T08:35:24;97324.34;;;6.68;32.38
77077;BME280;66003;52.286;104.306;2023-03-14T08:37:51;97283.09;;;6.54;31.93
77077;BME280;66003;52.286;104.306;2023-03-14T08:40:18;97299.84;;;6.55;31.92
77077;BME280;66003;52.286;104.306;2023-03-14T08:42:45;97291.06;;;6.54;31.62
77077;BME280;66003;52.286;104.306;2023-03-14T08:45:14;97331.16;;;6.87;32.10
77077;BME280;66003;52.286;104.306;2023-03-14T08:47:43;97322.72;;;6.56;31.40
77077;BME280;66003;52.286;104.306;2023-03-14T08:50:10;97305.13;;;6.43;31.98
77077;BME280;66003;52.286;104.306;2023-03-14T08:52:37;97333.75;;;6.41;32.01
77077;BME280;66003;52.286;104.306;2023-03-14T08:55:07;97325.06;;;6.22;31.76
77077;BME280;66003;52.286;104.306;2023-03-14T08:57:34;97325.91;;;6.04;32.00
77077;BME280;66003;52.286;104.306;2023-03-14T09:00:00;97285.13;;;5.87;32.08
77077;BME280;66003;52.286;104.306;2023-03-14T09:02:26;97318.50;;;5.95;32.05
77077;BME280;66003;52.286;104.306;2023-03-14T09:04:53;97317.56;;;5.89;31.83
77077;BME280;66003;52.286;104.306;2023-03-14T09:07:19;97320.03;;;5.84;32.24
77077;BME280;66003;52.286;104.306;2023-03-14T09:09:45;97320.50;;;5.81;32.40
77077;BME280;66003;52.286;104.306;2023-03-14T09:12:12;97316.31;;;5.73;32.41
77077;BME280;66003;52.286;104.306;2023-03-14T09:14:38;97282.78;;;5.49;32.83
77077;BME280;66003;52.286;104.306;2023-03-14T09:17:04;97299.47;;;5.31;33.12
77077;BME280;66003;52.286;104.306;2023-03-14T09:19:30;97276.25;;;5.15;33.44
77077;BME280;66003;52.286;104.306;2023-03-14T09:21:56;97297.00;;;5.18;33.32
77077;BME280;66003;52.286;104.306;2023-03-14T09:24:22;97318.03;;;5.13;33.52
77077;BME280;66003;52.286;104.306;2023-03-14T09:26:48;97296.69;;;5.08;33.32
77077;BME280;66003;52.286;104.306;2023-03-14T09:29:15;97276.97;;;5.04;33.39
77077;BME280;66003;52.286;104.306;2023-03-14T09:31:41;97291.25;;;5.03;33.16
77077;BME280;66003;52.286;104.306;2023-03-14T09:34:07;97323.41;;;5.06;33.48
77077;BME280;66003;52.286;104.306;2023-03-14T09:36:33;97288.66;;;4.78;33.56
77077;BME280;66003;52.286;104.306;2023-03-14T09:38:59;97282.25;;;4.67;33.76
77077;BME280;66003;52.286;104.306;2023-03-14T09:41:29;97283.56;;;4.58;34.21
77077;BME280;66003;52.286;104.306;2023-03-14T09:44:19;97320.13;;;4.68;34.12
77077;BME280;66003;52.286;104.306;2023-03-14T09:46:50;97313.84;;;4.62;34.46
77077;BME280;66003;52.286;104.306;2023-03-14T09:49:30;97321.63;;;4.57;34.48
77077;BME280;66003;52.286;104.306;2023-03-14T09:52:00;97283.97;;;4.30;34.45
77077;BME280;66003;52.286;104.306;2023-03-14T09:54:34;97317.78;;;4.53;34.78
77077;BME280;66003;52.286;104.306;2023-03-14T09:57:03;97319.09;;;4.44;34.45
77077;BME280;66003;52.286;104.306;2023-03-14T09:59:30;97308.22;;;4.27;35.12
77077;BME280;66003;52.286;104.306;2023-03-14T10:02:21;97280.50;;;4.05;34.98
77077;BME280;66003;52.286;104.306;2023-03-14T10:04:49;97286.69;;;3.92;34.84
77077;BME280;66003;52.286;104.306;2023-03-14T10:07:18;97270.97;;;3.73;35.32
77077;BME280;66003;52.286;104.306;2023-03-14T10:09:48;97321.72;;;3.88;35.21
77077;BME280;66003;52.286;104.306;2023-03-14T10:12:16;97282.81;;;3.63;35.87
77077;BME280;66003;52.286;104.306;2023-03-14T10:14:49;97305.53;;;3.71;35.53
77077;BME280;66003;52.286;104.306;2023-03-14T10:17:18;97306.75;;;3.69;35.83
77077;BME280;66003;52.286;104.306;2023-03-14T10:19:56;97281.38;;;3.61;35.62
77077;BME280;66003;52.286;104.306;2023-03-14T10:22:32;97315.13;;;3.66;36.04
77077;BME280;66003;52.286;104.306;2023-03-14T10:25:06;97316.34;;;3.63;35.83
77077;BME280;66003;52.286;104.306;2023-03-14T10:27:49;97319.44;;;3.53;35.88
77077;BME280;66003;52.286;104.306;2023-03-14T10:30:39;97311.78;;;3.32;35.86
77077;BME280;66003;52.286;104.306;2023-03-14T10:33:22;97291.38;;;3.01;36.19
77077;BME280;66003;52.286;104.306;2023-03-14T10:38:33;97302.19;;;2.73;37.34
77077;BME280;66003;52.286;104.306;2023-03-14T10:41:00;97325.75;;;2.81;37.37
77077;BME280;66003;52.286;104.306;2023-03-14T10:43:34;97292.06;;;2.50;37.14
77077;BME280;66003;52.286;104.306;2023-03-14T10:46:18;97332.47;;;2.71;37.13
77077;BME280;66003;52.286;104.306;2023-03-14T10:48:45;97331.22;;;2.60;37.97
77077;BME280;66003;52.286;104.306;2023-03-14T10:51:26;97309.34;;;2.46;37.38
77077;BME280;66003;52.286;104.306;2023-03-14T10:54:04;97307.91;;;2.37;37.44
77077;BME280;66003;52.286;104.306;2023-03-14T10:56:38;97338.56;;;2.45;38.12
77077;BME280;66003;52.286;104.306;2023-03-14T10:59:13;97345.25;;;2.34;38.19
77077;BME280;66003;52.286;104.306;2023-03-14T11:07:16;97310.09;;;1.88;40.90
77077;BME280;66003;52.286;104.306;2023-03-14T11:15:38;97345.00;;;2.03;39.67
77077;BME280;66003;52.286;104.306;2023-03-14T11:21:13;97347.03;;;2.07;39.26
77077;BME280;66003;52.286;104.306;2023-03-14T11:26:20;97351.28;;;2.08;39.35
77077;BME280;66003;52.286;104.306;2023-03-14T11:28:57;97349.88;;;2.12;39.47
77077;BME280;66003;52.286;104.306;2023-03-14T11:31:28;97354.34;;;2.18;39.41
77077;BME280;66003;52.286;104.306;2023-03-14T11:34:15;97348.69;;;2.28;38.88
77077;BME280;66003;52.286;104.306;2023-03-14T11:36:46;97344.66;;;2.45;38.65
77077;BME280;66003;52.286;104.306;2023-03-14T11:39:17;97346.88;;;2.35;38.73
77077;BME280;66003;52.286;104.306;2023-03-14T11:41:46;97349.72;;;2.40;38.78
77077;BME280;66003;52.286;104.306;2023-03-14T11:44:20;97357.03;;;2.45;38.72
77077;BME280;66003;52.286;104.306;2023-03-14T11:49:36;97349.31;;;2.43;38.74
77077;BME280;66003;52.286;104.306;2023-03-14T11:52:32;97348.91;;;2.46;38.23
77077;BME280;66003;52.286;104.306;2023-03-14T11:55:00;97355.19;;;2.39;38.96
77077;BME280;66003;52.286;104.306;2023-03-14T11:57:28;97324.50;;;2.05;38.95
77077;BME280;66003;52.286;104.306;2023-03-14T12:02:35;97354.94;;;2.07;39.09
77077;BME280;66003;52.286;104.306;2023-03-14T12:13:03;97327.66;;;1.67;39.64
77077;BME280;66003;52.286;104.306;2023-03-14T12:15:30;97331.75;;;1.70;39.45
77077;BME280;66003;52.286;104.306;2023-03-14T12:17:56;97368.09;;;1.94;40.07
77077;BME280;66003;52.286;104.306;2023-03-14T12:20:25;97355.50;;;1.90;39.80
77077;BME280;66003;52.286;104.306;2023-03-14T12:22:56;97364.06;;;1.98;40.13
77077;BME280;66003;52.286;104.306;2023-03-14T12:25:29;97370.53;;;1.96;39.85
77077;BME280;66003;52.286;104.306;2023-03-14T12:38:23;97361.88;;;2.41;39.98
77077;BME280;66003;52.286;104.306;2023-03-14T12:43:28;97371.00;;;2.52;39.65
77077;BME280;66003;52.286;104.306;2023-03-14T12:46:23;97365.75;;;2.65;39.88
77077;BME280;66003;52.286;104.306;2023-03-14T12:49:03;97356.00;;;2.72;39.67
77077;BME280;66003;52.286;104.306;2023-03-14T12:51:34;97356.41;;;2.82;39.70
77077;BME280;66003;52.286;104.306;2023-03-14T12:59:34;97360.03;;;2.88;39.91
77077;BME280;66003;52.286;104.306;2023-03-14T13:04:36;97365.13;;;2.83;39.30
77077;BME280;66003;52.286;104.306;2023-03-14T13:07:03;97330.22;;;2.68;39.88
77077;BME280;66003;52.286;104.306;2023-03-14T13:14:30;97346.63;;;2.17;39.79
77077;BME280;66003;52.286;104.306;2023-03-14T13:17:00;97330.59;;;1.99;39.62
77077;BME280;66003;52.286;104.306;2023-03-14T13:19:29;97326.47;;;1.63;40.96
77077;BME280;66003;52.286;104.306;2023-03-14T13:22:06;97309.56;;;1.38;40.96
77077;BME280;66003;52.286;104.306;2023-03-14T13:24:35;97310.50;;;1.30;41.15
77077;BME280;66003;52.286;104.306;2023-03-14T13:27:01;97318.97;;;1.19;41.29
77077;BME280;66003;52.286;104.306;2023-03-14T13:29:29;97349.00;;;1.31;41.41
77077;BME280;66003;52.286;104.306;2023-03-14T13:32:01;97341.84;;;1.19;41.91
77077;BME280;66003;52.286;104.306;2023-03-14T13:34:32;97358.81;;;1.09;42.60
77077;BME280;66003;52.286;104.306;2023-03-14T13:36:59;97342.81;;;1.04;42.71
77077;BME280;66003;52.286;104.306;2023-03-14T13:39:28;97324.34;;;0.98;42.51
77077;BME280;66003;52.286;104.306;2023-03-14T13:41:59;97359.69;;;1.17;42.69
77077;BME280;66003;52.286;104.306;2023-03-14T13:44:29;97265.97;;;0.47;42.62
77077;BME280;66003;52.286;104.306;2023-03-14T13:47:05;97349.47;;;1.00;41.97
77077;BME280;66003;52.286;104.306;2023-03-14T13:49:33;97346.38;;;0.97;42.23
77077;BME280;66003;52.286;104.306;2023-03-14T13:52:02;97352.28;;;0.99;42.47
77077;BME280;66003;52.286;104.306;2023-03-14T13:54:30;97331.78;;;0.88;42.47
77077;BME280;66003;52.286;104.306;2023-03-14T13:57:02;97352.13;;;1.07;42.58
77077;BME280;66003;52.286;104.306;2023-03-14T13:59:33;97344.03;;;1.08;42.30
77077;BME280;66003;52.286;104.306;2023-03-14T14:02:13;97352.19;;;1.20;42.62
77077;BME280;66003;52.286;104.306;2023-03-14T14:04:39;97340.84;;;1.20;42.06